createdAt,value
2022-10-06T00:02:20.607Z,101499.47
2022-10-06T00:04:49.814Z,101507.00
2022-10-06T00:07:19.336Z,101496.91
2022-10-06T00:09:48.465Z,101518.84
2022-10-06T00:12:17.737Z,101517.72
2022-10-06T00:14:48.265Z,101520.69
2022-10-06T00:17:17.525Z,101522.63
2022-10-06T00:19:46.593Z,101526.06
2022-10-06T00:22:15.740Z,101503.91
2022-10-06T00:24:44.890Z,101497.38
2022-10-06T00:27:14.102Z,101507.22
2022-10-06T00:29:43.630Z,101503.06
2022-10-06T00:32:14.104Z,101518.09
2022-10-06T00:34:44.226Z,101506.50
2022-10-06T00:37:13.357Z,101521.28
2022-10-06T00:39:42.832Z,101510.63
2022-10-06T00:42:24.566Z,101515.16
2022-10-06T00:44:54.809Z,101514.31
2022-10-06T00:47:31.153Z,101509.63
2022-10-06T00:50:02.835Z,101513.97
2022-10-06T00:52:33.636Z,101526.91
2022-10-06T00:55:04.327Z,101525.81
2022-10-06T00:57:36.090Z,101526.81
2022-10-06T01:00:06.338Z,101514.84
2022-10-06T01:02:42.776Z,101523.41
2022-10-06T01:05:18.716Z,101523.81
2022-10-06T01:07:48.163Z,101537.59
2022-10-06T01:10:17.471Z,101518.66
2022-10-06T01:12:46.770Z,101536.22
2022-10-06T01:15:17.401Z,101539.38
2022-10-06T01:17:56.215Z,101539.56
2022-10-06T01:20:26.359Z,101531.75
2022-10-06T01:23:01.859Z,101539.66
2022-10-06T01:25:32.384Z,101534.47
2022-10-06T01:28:04.944Z,101546.69
2022-10-06T01:30:42.767Z,101543.38
2022-10-06T01:33:12.079Z,101538.56
2022-10-06T01:35:42.123Z,101549.53
2022-10-06T01:38:12.659Z,101545.31
2022-10-06T01:40:42.407Z,101541.38
2022-10-06T01:43:12.649Z,101543.31
2022-10-06T01:45:41.808Z,101547.69
2022-10-06T01:48:11.337Z,101550.47
2022-10-06T01:50:42.605Z,101537.03
2022-10-06T01:53:13.250Z,101546.59
2022-10-06T01:55:42.653Z,101555.59
2022-10-06T01:58:14.803Z,101545.09
2022-10-06T02:00:44.239Z,101532.41
2022-10-06T02:03:13.352Z,101532.50
2022-10-06T02:05:44.296Z,101524.78
2022-10-06T02:08:16.318Z,101515.25
2022-10-06T02:10:46.260Z,101527.31
2022-10-06T02:13:25.718Z,101524.59
2022-10-06T02:15:58.006Z,101525.94
2022-10-06T02:18:28.169Z,101532.25
2022-10-06T02:20:57.512Z,101523.19
2022-10-06T02:23:28.196Z,101512.94
2022-10-06T02:26:01.481Z,101523.59
2022-10-06T02:28:32.719Z,101526.94
2022-10-06T02:31:05.360Z,101521.16
2022-10-06T02:33:36.171Z,101521.34
2022-10-06T02:36:08.380Z,101529.06
2022-10-06T02:38:39.522Z,101523.19
2022-10-06T02:41:11.416Z,101528.88
2022-10-06T02:43:41.261Z,101527.44
2022-10-06T02:46:14.477Z,101521.28
2022-10-06T02:48:49.671Z,101516.41
2022-10-06T02:51:21.670Z,101513.03
2022-10-06T02:53:53.539Z,101513.25
2022-10-06T02:56:24.818Z,101502.06
2022-10-06T02:58:55.671Z,101494.94
2022-10-06T03:01:34.649Z,101496.56
2022-10-06T03:04:12.151Z,101518.13
2022-10-06T03:06:43.666Z,101514.06
2022-10-06T03:09:22.944Z,101518.84
2022-10-06T03:11:53.610Z,101518.53
2022-10-06T03:14:38.198Z,101520.38
2022-10-06T03:17:10.032Z,101445.75
2022-10-06T03:19:44.053Z,101524.81
2022-10-06T03:22:14.081Z,101521.78
2022-10-06T03:24:50.169Z,101512.63
2022-10-06T03:27:19.266Z,101514.34
2022-10-06T03:29:49.022Z,101515.91
2022-10-06T03:32:18.592Z,101509.50
2022-10-06T03:34:48.046Z,101503.28
2022-10-06T03:37:19.447Z,101510.03
2022-10-06T03:39:50.135Z,101508.81
2022-10-06T03:42:20.116Z,101508.78
2022-10-06T03:44:49.948Z,101512.84
2022-10-06T03:47:19.280Z,101510.00
2022-10-06T03:49:49.031Z,101509.81
2022-10-06T03:52:22.425Z,101500.66
2022-10-06T03:54:56.677Z,101517.53
2022-10-06T03:57:26.156Z,101515.19
2022-10-06T03:59:59.370Z,101523.03
2022-10-06T04:02:28.777Z,101526.28
2022-10-06T04:04:58.355Z,101516.09
2022-10-06T04:07:27.674Z,101531.25
2022-10-06T04:09:58.345Z,101517.63
2022-10-06T04:12:27.564Z,101514.56
2022-10-06T04:15:00.140Z,101524.44
2022-10-06T04:17:30.976Z,101516.41
2022-10-06T04:20:00.168Z,101519.34
2022-10-06T04:22:29.560Z,101524.16
2022-10-06T04:25:00.228Z,101517.94
2022-10-06T04:27:29.568Z,101534.47
2022-10-06T04:30:15.116Z,101533.34
2022-10-06T04:32:45.749Z,101543.78
2022-10-06T04:35:15.509Z,101553.66
2022-10-06T04:37:45.010Z,101553.66
2022-10-06T04:40:15.938Z,101544.69
2022-10-06T04:42:45.930Z,101557.91
2022-10-06T04:45:18.191Z,101539.84
2022-10-06T04:47:50.898Z,101572.69
2022-10-06T04:50:20.011Z,101552.19
2022-10-06T04:53:06.660Z,101585.44
2022-10-06T04:55:37.222Z,101557.16
2022-10-06T04:58:06.580Z,101569.66
2022-10-06T05:00:36.490Z,101567.94
2022-10-06T05:03:05.787Z,101575.34
2022-10-06T05:05:35.010Z,101579.47
2022-10-06T05:08:04.318Z,101576.56
2022-10-06T05:10:33.747Z,101569.06
2022-10-06T05:13:06.150Z,101576.41
2022-10-06T05:15:35.411Z,101583.34
2022-10-06T05:18:05.745Z,101585.78
2022-10-06T05:20:35.042Z,101582.81
2022-10-06T05:23:08.340Z,101582.31
2022-10-06T05:25:38.164Z,101579.47
2022-10-06T05:28:08.919Z,101595.97
2022-10-06T05:30:38.153Z,101583.84
2022-10-06T05:33:11.032Z,101591.47
2022-10-06T05:35:41.317Z,101597.34
2022-10-06T05:38:11.815Z,101610.28
2022-10-06T05:40:41.106Z,101614.56
2022-10-06T05:43:11.791Z,101620.38
2022-10-06T05:45:41.045Z,101614.31
2022-10-06T05:48:10.890Z,101619.81
2022-10-06T05:50:40.309Z,101630.06
2022-10-06T05:53:09.600Z,101625.75
2022-10-06T05:55:38.838Z,101620.59
2022-10-06T05:58:08.020Z,101616.84
2022-10-06T06:00:38.671Z,101625.69
2022-10-06T06:03:10.934Z,101603.69
2022-10-06T06:05:43.252Z,101627.31
2022-10-06T06:08:12.683Z,101632.13
2022-10-06T06:10:41.801Z,101620.94
2022-10-06T06:13:11.221Z,101638.88
2022-10-06T06:16:01.526Z,101640.09
2022-10-06T06:18:32.664Z,101641.03
2022-10-06T06:21:05.441Z,101640.72
2022-10-06T06:23:37.899Z,101642.25
2022-10-06T06:26:10.024Z,101642.75
2022-10-06T06:28:46.415Z,101625.25
2022-10-06T06:31:21.448Z,101636.28
2022-10-06T06:33:55.108Z,101641.97
2022-10-06T06:36:29.970Z,101644.59
2022-10-06T06:39:00.245Z,101654.78
2022-10-06T06:41:31.999Z,101633.03
2022-10-06T06:44:11.681Z,101645.19
2022-10-06T06:46:49.376Z,101645.81
2022-10-06T06:49:22.092Z,101634.94
2022-10-06T06:51:55.955Z,101660.47
2022-10-06T06:54:27.781Z,101657.13
2022-10-06T06:57:03.612Z,101651.81
2022-10-06T06:59:34.137Z,101660.28
2022-10-06T07:02:04.943Z,101677.13
2022-10-06T07:04:38.158Z,101659.31
2022-10-06T07:07:11.868Z,101666.84
2022-10-06T07:09:41.193Z,101678.00
2022-10-06T07:12:12.734Z,101666.91
2022-10-06T07:15:08.060Z,101657.13
2022-10-06T07:18:00.639Z,101677.69
2022-10-06T07:20:48.785Z,101676.84
2022-10-06T07:23:38.738Z,101672.16
2022-10-06T07:26:12.800Z,101669.78
2022-10-06T07:28:42.496Z,101652.41
2022-10-06T07:31:12.959Z,101672.28
2022-10-06T07:33:44.367Z,101668.53
2022-10-06T07:36:14.124Z,101678.03
2022-10-06T07:38:43.339Z,101672.00
2022-10-06T07:41:19.363Z,101693.66
2022-10-06T07:43:56.373Z,101683.66
2022-10-06T07:46:28.363Z,101685.13
2022-10-06T07:49:09.011Z,101686.84
2022-10-06T07:51:39.072Z,101687.88
2022-10-06T07:54:09.527Z,101698.66
2022-10-06T07:56:49.116Z,101713.91
2022-10-06T07:59:21.202Z,101703.75
2022-10-06T08:01:52.573Z,101713.44
2022-10-06T08:04:23.204Z,101717.16
2022-10-06T08:06:52.442Z,101715.59
2022-10-06T08:09:22.263Z,101715.13
2022-10-06T08:11:52.718Z,101712.03
2022-10-06T08:14:22.383Z,101705.22
2022-10-06T08:16:51.536Z,101722.94
2022-10-06T08:19:22.401Z,101711.53
2022-10-06T08:21:52.285Z,101703.03
2022-10-06T08:24:21.471Z,101706.09
2022-10-06T08:26:50.789Z,101711.03
2022-10-06T08:29:20.173Z,101700.53
2022-10-06T08:31:49.756Z,101705.81
2022-10-06T08:34:19.045Z,101712.13
2022-10-06T08:37:08.639Z,101721.03
2022-10-06T08:39:38.141Z,101717.38
2022-10-06T08:42:07.310Z,101719.19
2022-10-06T08:44:42.163Z,101713.84
2022-10-06T08:47:17.946Z,101716.09
2022-10-06T08:49:49.962Z,101707.00
2022-10-06T08:52:52.076Z,101729.50
2022-10-06T08:55:39.395Z,101718.47
2022-10-06T08:58:29.406Z,101709.06
2022-10-06T09:01:13.924Z,101720.53
2022-10-06T09:03:47.280Z,101716.03
2022-10-06T09:06:29.492Z,101717.28
2022-10-06T09:09:11.293Z,101708.81
2022-10-06T09:11:56.139Z,101720.19
2022-10-06T09:14:33.709Z,101720.22
2022-10-06T09:17:08.390Z,101703.88
2022-10-06T09:19:45.555Z,101704.72
2022-10-06T09:22:21.252Z,101718.72
2022-10-06T09:24:58.112Z,101720.81
2022-10-06T09:27:34.000Z,101719.72
2022-10-06T09:30:04.711Z,101721.03
2022-10-06T09:32:35.083Z,101723.28
2022-10-06T09:35:18.084Z,101723.28
2022-10-06T09:37:57.785Z,101719.72
2022-10-06T09:40:39.016Z,101724.44
2022-10-06T09:43:21.566Z,101739.66
2022-10-06T09:45:51.688Z,101752.50
2022-10-06T09:48:25.123Z,101737.22
2022-10-06T09:51:15.103Z,101749.22
2022-10-06T09:53:45.817Z,101727.47
2022-10-06T09:56:19.918Z,101736.19
2022-10-06T09:58:59.557Z,101740.25
2022-10-06T10:01:32.292Z,101732.59
2022-10-06T10:04:19.914Z,101751.09
2022-10-06T10:06:50.611Z,101745.91
2022-10-06T10:09:28.978Z,101763.97
2022-10-06T10:12:31.136Z,101750.97
2022-10-06T10:15:04.743Z,101746.75
2022-10-06T10:17:41.528Z,101743.97
2022-10-06T10:20:34.386Z,101738.59
2022-10-06T10:23:19.576Z,101746.22
2022-10-06T10:26:09.336Z,101749.16
2022-10-06T10:29:14.517Z,101735.50
2022-10-06T10:31:59.193Z,101743.19
2022-10-06T10:34:59.788Z,101736.91
2022-10-06T10:37:40.710Z,101742.94
2022-10-06T10:40:23.668Z,101727.13
2022-10-06T10:43:06.010Z,101738.28
2022-10-06T10:45:41.819Z,101733.25
2022-10-06T10:48:19.991Z,101732.97
2022-10-06T10:50:58.531Z,101726.22
2022-10-06T10:53:40.170Z,101726.59
2022-10-06T10:56:16.267Z,101713.03
2022-10-06T10:58:48.836Z,101714.59
2022-10-06T11:01:26.722Z,101714.56
2022-10-06T11:03:59.323Z,101714.00
2022-10-06T11:07:13.867Z,101718.59
2022-10-06T11:09:53.761Z,101717.53
2022-10-06T11:12:52.916Z,101700.00
2022-10-06T11:15:36.478Z,101715.41
2022-10-06T11:18:21.421Z,101714.47
2022-10-06T11:20:57.925Z,101701.31
2022-10-06T11:23:43.365Z,101710.00
2022-10-06T11:26:28.584Z,101714.69
2022-10-06T11:29:06.257Z,101710.03
2022-10-06T11:31:41.080Z,101711.88
2022-10-06T11:34:12.203Z,101721.16
2022-10-06T11:36:50.955Z,101705.31
2022-10-06T11:39:25.100Z,101704.66
2022-10-06T11:42:03.767Z,101707.03
2022-10-06T11:44:40.397Z,101699.22
2022-10-06T11:47:16.358Z,101707.56
2022-10-06T11:49:56.195Z,101688.94
2022-10-06T11:52:49.215Z,101692.31
2022-10-06T11:55:22.234Z,101692.84
2022-10-06T11:58:40.951Z,101695.88
2022-10-06T12:01:06.488Z,101696.44
2022-10-06T12:03:48.585Z,101699.84
2022-10-06T12:07:05.725Z,101698.53
2022-10-06T12:09:53.497Z,101675.50
2022-10-06T12:13:05.361Z,101676.50
2022-10-06T12:19:21.118Z,101671.88
2022-10-06T12:22:01.584Z,101680.13
2022-10-06T12:24:41.511Z,101668.13
2022-10-06T12:27:40.369Z,101677.56
2022-10-06T12:30:23.442Z,101672.16
2022-10-06T12:32:55.846Z,101657.16
2022-10-06T12:35:32.673Z,101664.34
2022-10-06T12:38:06.334Z,101657.03
2022-10-06T12:40:59.755Z,101661.13
2022-10-06T12:43:55.255Z,101650.97
2022-10-06T12:46:53.073Z,101657.53
2022-10-06T12:49:46.774Z,101652.22
2022-10-06T12:52:46.206Z,101657.22
2022-10-06T12:55:36.332Z,101647.94
2022-10-06T12:58:08.718Z,101645.84
2022-10-06T13:00:42.521Z,101639.41
2022-10-06T13:03:20.656Z,101633.38
2022-10-06T13:05:57.269Z,101633.59
2022-10-06T13:08:29.665Z,101638.00
2022-10-06T13:11:22.522Z,101626.94
2022-10-06T13:13:54.118Z,101623.78
2022-10-06T13:16:26.302Z,101627.75
2022-10-06T13:18:58.546Z,101638.41
2022-10-06T13:21:30.293Z,101616.69
2022-10-06T13:23:59.518Z,101624.34
2022-10-06T13:26:34.814Z,101640.19
2022-10-06T13:29:04.034Z,101635.16
2022-10-06T13:31:35.292Z,101620.47
2022-10-06T13:34:08.091Z,101608.81
2022-10-06T13:36:39.904Z,101593.81
2022-10-06T13:39:15.776Z,101607.78
2022-10-06T13:41:49.125Z,101622.28
2022-10-06T13:44:38.079Z,101605.38
2022-10-06T13:47:15.905Z,101598.94
2022-10-06T13:49:51.104Z,101602.38
2022-10-06T13:52:26.462Z,101621.81
2022-10-06T13:54:58.460Z,101599.66
2022-10-06T13:57:45.708Z,101614.94
2022-10-06T14:00:21.762Z,101613.66
2022-10-06T14:02:54.953Z,101615.97
2022-10-06T14:05:36.629Z,101622.53
2022-10-06T14:08:22.165Z,101611.44
2022-10-06T14:10:55.644Z,101599.69
2022-10-06T14:13:29.366Z,101603.06
2022-10-06T14:16:01.840Z,101618.19
2022-10-06T14:18:37.021Z,101606.13
2022-10-06T14:21:20.211Z,101599.56
2022-10-06T14:23:52.096Z,101579.09
2022-10-06T14:26:27.571Z,101570.22
2022-10-06T14:28:59.171Z,101562.16
2022-10-06T14:31:31.922Z,101568.13
2022-10-06T14:34:02.381Z,101571.97
2022-10-06T14:36:34.564Z,101573.13
2022-10-06T14:39:06.397Z,101572.63
2022-10-06T14:41:36.395Z,101564.97
2022-10-06T14:44:11.432Z,101563.59
2022-10-06T14:46:43.156Z,101586.03
2022-10-06T14:49:14.117Z,101546.63
2022-10-06T14:51:45.638Z,101567.22
2022-10-06T14:54:15.055Z,101552.69
2022-10-06T14:56:44.441Z,101568.25
2022-10-06T14:59:18.025Z,101571.66
2022-10-06T15:01:48.829Z,101550.81
2022-10-06T15:04:20.627Z,101548.22
2022-10-06T15:07:07.546Z,101543.38
2022-10-06T15:09:36.996Z,101547.84
2022-10-06T15:12:06.231Z,101536.09
2022-10-06T15:14:40.066Z,101525.94
2022-10-06T15:17:09.391Z,101535.16
2022-10-06T15:19:40.388Z,101508.25
2022-10-06T15:22:10.508Z,101526.66
2022-10-06T15:24:39.655Z,101521.38
2022-10-06T15:27:26.018Z,101519.34
2022-10-06T15:29:57.514Z,101530.00
2022-10-06T15:32:26.717Z,101529.09
2022-10-06T15:34:55.968Z,101528.81
2022-10-06T15:37:25.150Z,101516.53
2022-10-06T15:39:54.376Z,101500.84
2022-10-06T15:42:25.651Z,101504.69
2022-10-06T15:44:56.246Z,101489.13
2022-10-06T15:47:25.621Z,101509.84
2022-10-06T15:49:54.691Z,101503.56
2022-10-06T15:52:23.792Z,101499.06
2022-10-06T15:54:53.008Z,101505.41
2022-10-06T15:57:22.214Z,101495.59
2022-10-06T15:59:51.571Z,101494.69
2022-10-06T16:02:22.694Z,101495.91
2022-10-06T16:05:17.839Z,101492.81
2022-10-06T16:07:47.063Z,101488.78
2022-10-06T16:10:16.444Z,101460.84
2022-10-06T16:12:45.609Z,101490.00
2022-10-06T16:15:14.963Z,101473.41
2022-10-06T16:17:45.493Z,101479.97
2022-10-06T16:20:16.662Z,101459.41
2022-10-06T16:22:48.934Z,101476.47
2022-10-06T16:25:19.016Z,101461.97
2022-10-06T16:27:48.970Z,101461.88
2022-10-06T16:30:20.367Z,101452.44
2022-10-06T16:32:51.788Z,101457.41
2022-10-06T16:35:21.667Z,101447.25
2022-10-06T16:37:52.910Z,101453.03
2022-10-06T16:40:23.611Z,101436.41
2022-10-06T16:42:53.880Z,101438.50
2022-10-06T16:45:23.363Z,101438.88
2022-10-06T16:47:54.119Z,101412.91
2022-10-06T16:50:23.287Z,101435.41
2022-10-06T16:52:52.669Z,101429.06
2022-10-06T16:55:21.803Z,101432.72
2022-10-06T16:57:50.952Z,101434.16
2022-10-06T17:00:20.355Z,101448.00
2022-10-06T17:02:49.502Z,101439.56
2022-10-06T17:05:20.105Z,101441.53
2022-10-06T17:07:49.221Z,101439.44
2022-10-06T17:10:21.180Z,101430.91
2022-10-06T17:12:50.706Z,101441.53
2022-10-06T17:15:20.096Z,101434.38
2022-10-06T17:17:49.371Z,101420.19
2022-10-06T17:20:20.155Z,101429.28
2022-10-06T17:22:50.410Z,101431.16
2022-10-06T17:25:19.798Z,101425.38
2022-10-06T17:27:49.013Z,101437.16
2022-10-06T17:30:18.341Z,101455.69
2022-10-06T17:32:48.051Z,101440.25
2022-10-06T17:35:20.037Z,101454.16
2022-10-06T17:37:51.397Z,101460.16
2022-10-06T17:40:20.795Z,101464.28
2022-10-06T17:42:50.207Z,101465.00
2022-10-06T17:45:21.362Z,101460.00
2022-10-06T17:47:51.847Z,101452.28
2022-10-06T17:50:21.265Z,101464.84
2022-10-06T17:52:51.873Z,101478.09
2022-10-06T17:55:21.496Z,101445.81
2022-10-06T17:57:50.673Z,101447.78
2022-10-06T18:00:20.163Z,101456.59
2022-10-06T18:02:49.516Z,101462.59
2022-10-06T18:05:19.290Z,101468.22
2022-10-06T18:07:48.498Z,101453.94
2022-10-06T18:10:36.519Z,101441.03
2022-10-06T18:13:07.310Z,101453.25
2022-10-06T18:15:37.594Z,101453.13
2022-10-06T18:18:07.481Z,101458.84
2022-10-06T18:20:41.349Z,101454.22
2022-10-06T18:23:10.764Z,101456.56
2022-10-06T18:25:41.417Z,101453.19
2022-10-06T18:28:12.092Z,101464.13
2022-10-06T18:30:41.295Z,101458.59
2022-10-06T18:36:12.363Z,101439.75
2022-10-06T18:38:45.324Z,101437.56
2022-10-06T18:41:18.567Z,101449.56
2022-10-06T18:43:47.865Z,101448.84
2022-10-06T18:46:36.394Z,101445.16
2022-10-06T18:49:12.183Z,101445.31
2022-10-06T18:51:44.892Z,101453.34
2022-10-06T18:54:16.575Z,101466.81
2022-10-06T18:56:51.665Z,101466.66
2022-10-06T18:59:26.311Z,101449.88
2022-10-06T19:01:57.982Z,101450.63
2022-10-06T19:04:28.134Z,101465.25
2022-10-06T19:06:57.682Z,101473.44
2022-10-06T19:09:27.678Z,101450.88
2022-10-06T19:11:59.152Z,101437.13
2022-10-06T19:14:31.729Z,101434.63
2022-10-06T19:17:03.899Z,101430.38
2022-10-06T19:19:34.157Z,101419.25
2022-10-06T19:22:05.643Z,101443.88
2022-10-06T19:24:39.006Z,101429.78
2022-10-06T19:27:12.761Z,101436.63
2022-10-06T19:29:46.083Z,101420.59
2022-10-06T19:32:18.007Z,101426.63
2022-10-06T19:34:48.580Z,101440.25
2022-10-06T19:37:18.327Z,101432.72
2022-10-06T19:39:50.263Z,101441.88
2022-10-06T19:42:38.947Z,101416.38
2022-10-06T19:45:11.919Z,101427.38
2022-10-06T19:47:42.149Z,101423.72
2022-10-06T19:50:12.812Z,101428.06
2022-10-06T19:52:42.520Z,101437.47
2022-10-06T19:55:12.886Z,101405.69
2022-10-06T19:57:43.852Z,101392.47
2022-10-06T20:00:15.033Z,101425.97
2022-10-06T20:02:45.092Z,101409.47
2022-10-06T20:05:16.257Z,101405.28
2022-10-06T20:07:47.927Z,101403.13
2022-10-06T20:10:17.230Z,101406.22
2022-10-06T20:12:48.391Z,101407.97
2022-10-06T20:15:17.790Z,101409.47
2022-10-06T20:17:47.936Z,101411.59
2022-10-06T20:20:18.983Z,101407.56
2022-10-06T20:22:49.857Z,101414.06
2022-10-06T20:25:19.202Z,101403.97
2022-10-06T20:27:50.340Z,101398.31
2022-10-06T20:30:19.923Z,101398.31
2022-10-06T20:32:49.023Z,101407.22
2022-10-06T20:35:18.362Z,101407.41
2022-10-06T20:37:47.652Z,101416.16
2022-10-06T20:40:34.372Z,101399.28
2022-10-06T20:43:04.965Z,101403.16
2022-10-06T20:45:34.153Z,101405.84
2022-10-06T20:48:03.511Z,101408.25
2022-10-06T20:50:32.635Z,101403.38
2022-10-06T20:53:01.808Z,101394.97
2022-10-06T20:55:31.116Z,101402.81
2022-10-06T20:58:00.292Z,101391.78
2022-10-06T21:00:30.951Z,101393.66
2022-10-06T21:03:00.162Z,101399.34
2022-10-06T21:05:33.271Z,101391.31
2022-10-06T21:08:02.606Z,101397.91
2022-10-06T21:10:31.809Z,101392.22
2022-10-06T21:13:01.295Z,101386.69
2022-10-06T21:15:32.070Z,101384.75
2022-10-06T21:18:01.353Z,101387.16
2022-10-06T21:20:30.757Z,101389.47
2022-10-06T21:22:59.904Z,101392.09
2022-10-06T21:25:29.569Z,101383.56
2022-10-06T21:27:58.858Z,101384.25
2022-10-06T21:30:28.006Z,101373.06
2022-10-06T21:32:58.764Z,101388.00
2022-10-06T21:35:28.119Z,101382.00
2022-10-06T21:37:57.329Z,101384.09
2022-10-06T21:40:26.494Z,101369.84
2022-10-06T21:42:55.861Z,101389.94
2022-10-06T21:45:29.605Z,101377.19
2022-10-06T21:48:02.801Z,101368.41
2022-10-06T21:50:31.961Z,101372.47
2022-10-06T21:53:01.102Z,101373.75
2022-10-06T21:55:30.279Z,101358.19
2022-10-06T21:57:59.517Z,101356.22
2022-10-06T22:00:28.707Z,101356.69
2022-10-06T22:02:58.053Z,101344.91
2022-10-06T22:05:28.805Z,101328.84
2022-10-06T22:07:58.048Z,101338.09
2022-10-06T22:10:27.378Z,101323.38
2022-10-06T22:12:56.573Z,101294.38
2022-10-06T22:15:25.809Z,101315.25
2022-10-06T22:17:55.052Z,101325.63
2022-10-06T22:20:24.413Z,101319.16
2022-10-06T22:22:54.936Z,101312.78
2022-10-06T22:25:24.481Z,101328.09
2022-10-06T22:27:53.747Z,101302.13
2022-10-06T22:30:23.084Z,101313.63
2022-10-06T22:32:52.630Z,101307.47
2022-10-06T22:35:21.823Z,101308.88
2022-10-06T22:37:51.206Z,101295.09
2022-10-06T22:40:21.926Z,101275.78
2022-10-06T22:42:51.256Z,101306.22
2022-10-06T22:45:20.409Z,101274.81
2022-10-06T22:47:49.593Z,101285.47
2022-10-06T22:50:18.681Z,101284.19
2022-10-06T22:52:47.898Z,101291.09
2022-10-06T22:55:17.248Z,101255.19
2022-10-06T22:57:47.847Z,101278.00
2022-10-06T23:00:17.707Z,101266.00
2022-10-06T23:02:46.797Z,101247.75
2022-10-06T23:05:16.154Z,101255.34
2022-10-06T23:07:45.689Z,101274.75
2022-10-06T23:10:15.249Z,101253.34
2022-10-06T23:12:44.352Z,101238.13
2022-10-06T23:15:15.373Z,101250.19
2022-10-06T23:17:45.269Z,101232.53
2022-10-06T23:20:15.575Z,101223.88
2022-10-06T23:22:44.987Z,101230.06
2022-10-06T23:25:14.255Z,101236.41
2022-10-06T23:27:43.692Z,101241.75
2022-10-06T23:30:15.304Z,101226.19
2022-10-06T23:32:44.536Z,101234.53
2022-10-06T23:35:13.738Z,101216.19
2022-10-06T23:37:43.252Z,101228.41
2022-10-06T23:40:12.948Z,101219.34
2022-10-06T23:42:42.177Z,101217.56
2022-10-06T23:45:12.169Z,101213.72
2022-10-06T23:47:43.057Z,101218.19
2022-10-06T23:50:12.378Z,101218.38
2022-10-06T23:52:41.586Z,101209.44
2022-10-06T23:55:11.133Z,101192.13
2022-10-06T23:57:40.296Z,101194.53
